Time;durP1;ratioP1;P1;durP2;ratioP2;P2;SDS_P1;SDS_P2;PMS_P1;PMS_P2;Temp;Humidity;BMP_temperature;BMP_pressure;BME280_temperature;BME280_humidity;BME280_pressure;Samples;Min_cycle;Max_cycle;Signal;HPM_P1;HPM_P2
2022/06/15 00:00:55;;;;;;;8.37;5.57;;;;;;;;;;4936524;29;20442;-75
2022/06/15 00:03:22;;;;;;;6.40;5.00;;;;;;;;;;4942707;29;20502;-75
2022/06/15 00:05:51;;;;;;;8.23;5.70;;;;;;;;;;4959106;29;20828;-75
2022/06/15 00:08:19;;;;;;;5.67;5.23;;;;;;;;;;4958900;28;20461;-75
2022/06/15 00:10:47;;;;;;;7.70;6.27;;;;;;;;;;4943563;29;20489;-75
2022/06/15 00:13:15;;;;;;;7.17;6.00;;;;;;;;;;4943805;29;20438;-74
2022/06/15 00:15:42;;;;;;;8.33;5.67;;;;;;;;;;4937009;29;20555;-75
2022/06/15 00:18:09;;;;;;;6.63;6.03;;;;;;;;;;4937359;29;20446;-74
2022/06/15 00:20:37;;;;;;;7.20;6.50;;;;;;;;;;4937660;29;20453;-75
2022/06/15 00:23:05;;;;;;;6.70;6.10;;;;;;;;;;4938181;29;20498;-74
2022/06/15 00:25:36;;;;;;;7.47;6.33;;;;;;;;;;4942348;28;20479;-75
2022/06/15 00:28:03;;;;;;;8.17;6.10;;;;;;;;;;4958806;29;21055;-75
2022/06/15 00:30:30;;;;;;;7.03;6.43;;;;;;;;;;4958270;28;20440;-73
2022/06/15 00:32:57;;;;;;;7.00;6.27;;;;;;;;;;4943418;28;20438;-75
2022/06/15 00:35:24;;;;;;;7.47;6.10;;;;;;;;;;4943254;29;20434;-74
2022/06/15 00:37:52;;;;;;;6.80;6.10;;;;;;;;;;4936443;29;21043;-75
2022/06/15 00:40:20;;;;;;;8.40;6.13;;;;;;;;;;4937023;29;20960;-75
2022/06/15 00:42:47;;;;;;;7.97;7.17;;;;;;;;;;4937242;29;21002;-75
2022/06/15 00:45:14;;;;;;;6.73;6.23;;;;;;;;;;4937645;29;20797;-75
2022/06/15 00:47:45;;;;;;;6.90;6.30;;;;;;;;;;4941380;29;20555;-75
2022/06/15 00:50:15;;;;;;;7.67;6.97;;;;;;;;;;4958540;28;20485;-74
2022/06/15 00:52:45;;;;;;;8.83;7.10;;;;;;;;;;4958545;28;21017;-75
2022/06/15 00:55:16;;;;;;;8.43;7.43;;;;;;;;;;4942462;28;20434;-75
2022/06/15 00:57:45;;;;;;;6.87;6.23;;;;;;;;;;4942925;29;20532;-75
2022/06/15 01:00:13;;;;;;;8.90;7.00;;;;;;;;;;4936272;29;20453;-74
2022/06/15 01:02:41;;;;;;;9.30;7.93;;;;;;;;;;4936596;29;21018;-74
2022/06/15 01:05:10;;;;;;;7.87;7.20;;;;;;;;;;4936868;29;20457;-75
2022/06/15 01:07:53;;;;;;;8.63;7.83;;;;;;;;;;4936153;29;20450;-76
2022/06/15 01:10:26;;;;;;;7.90;7.30;;;;;;;;;;4944081;29;20484;-75
2022/06/15 01:12:57;;;;;;;8.47;7.57;;;;;;;;;;4958045;28;20460;-75
2022/06/15 01:15:31;;;;;;;7.00;6.40;;;;;;;;;;4953721;28;20442;-75
2022/06/15 01:18:03;;;;;;;8.20;7.60;;;;;;;;;;4942377;29;20435;-75
2022/06/15 01:20:37;;;;;;;8.83;7.60;;;;;;;;;;4946064;28;20443;-76
2022/06/15 01:23:19;;;;;;;8.13;7.43;;;;;;;;;;4955335;28;20493;-76
2022/06/15 01:25:49;;;;;;;8.10;7.30;;;;;;;;;;4955588;28;20502;-75
2022/06/15 01:28:29;;;;;;;11.10;7.60;;;;;;;;;;4955875;28;20478;-74
2022/06/15 01:31:00;;;;;;;8.33;7.63;;;;;;;;;;4956127;29;20543;-73
2022/06/15 01:33:30;;;;;;;8.57;7.77;;;;;;;;;;4956995;28;20467;-74
2022/06/15 01:36:01;;;;;;;12.23;8.97;;;;;;;;;;4957688;28;20826;-75
2022/06/15 01:38:33;;;;;;;8.53;7.80;;;;;;;;;;4949415;28;20815;-74
2022/06/15 01:41:04;;;;;;;8.70;7.77;;;;;;;;;;4942026;29;20532;-75
2022/06/15 01:43:34;;;;;;;8.40;7.30;;;;;;;;;;4948132;28;20494;-75
2022/06/15 01:46:03;;;;;;;9.27;8.30;;;;;;;;;;4955005;28;20466;-75
2022/06/15 01:48:31;;;;;;;9.50;8.13;;;;;;;;;;4955231;28;20439;-75
2022/06/15 01:51:04;;;;;;;8.73;7.93;;;;;;;;;;4955480;28;20442;-76
2022/06/15 01:53:34;;;;;;;9.00;8.13;;;;;;;;;;4955360;28;20545;-76
2022/06/15 01:56:04;;;;;;;7.83;7.23;;;;;;;;;;4956468;29;20839;-75
2022/06/15 01:58:32;;;;;;;9.40;8.57;;;;;;;;;;4956908;29;20883;-75
2022/06/15 02:01:02;;;;;;;9.20;7.40;;;;;;;;;;4948088;29;20449;-74
2022/06/15 02:03:35;;;;;;;8.80;8.00;;;;;;;;;;4941393;28;20496;-74
2022/06/15 02:06:04;;;;;;;7.73;7.07;;;;;;;;;;4936070;29;20462;-74
2022/06/15 02:08:37;;;;;;;8.90;7.83;;;;;;;;;;4935685;29;20454;-73
2022/06/15 02:11:06;;;;;;;9.00;7.77;;;;;;;;;;4935587;29;20964;-74
2022/06/15 02:13:37;;;;;;;9.63;8.70;;;;;;;;;;4936196;29;20819;-75
2022/06/15 02:16:05;;;;;;;8.73;7.73;;;;;;;;;;4935795;29;20559;-76
2022/06/15 02:18:35;;;;;;;11.77;9.27;;;;;;;;;;4954948;28;20548;-75
2022/06/15 02:21:04;;;;;;;8.47;7.70;;;;;;;;;;4956722;28;20454;-75
2022/06/15 02:23:33;;;;;;;9.00;8.20;;;;;;;;;;4945023;28;20838;-74
2022/06/15 02:26:00;;;;;;;10.80;8.13;;;;;;;;;;4941239;28;21011;-74
2022/06/15 02:28:30;;;;;;;8.73;7.83;;;;;;;;;;4936597;29;20963;-74
2022/06/15 02:30:57;;;;;;;8.70;8.00;;;;;;;;;;4935110;29;20462;-73
2022/06/15 02:33:26;;;;;;;9.17;8.27;;;;;;;;;;4935369;29;20457;-75
2022/06/15 02:35:54;;;;;;;9.20;8.13;;;;;;;;;;4934339;29;20466;-75
2022/06/15 02:38:22;;;;;;;10.20;8.43;;;;;;;;;;4935026;29;20478;-74
2022/06/15 02:40:49;;;;;;;10.37;9.37;;;;;;;;;;4954357;29;20456;-74
2022/06/15 02:43:18;;;;;;;8.97;8.13;;;;;;;;;;4956815;28;20581;-75
2022/06/15 02:45:47;;;;;;;9.80;8.90;;;;;;;;;;4945938;28;20450;-75
2022/06/15 02:48:14;;;;;;;9.93;9.10;;;;;;;;;;4940690;28;20446;-76
2022/06/15 02:50:47;;;;;;;9.77;8.77;;;;;;;;;;4936405;29;20821;-75
2022/06/15 02:53:17;;;;;;;11.13;8.97;;;;;;;;;;4934591;29;20972;-75
2022/06/15 02:55:46;;;;;;;10.57;8.50;;;;;;;;;;4934957;29;20470;-75
2022/06/15 02:58:15;;;;;;;10.23;9.23;;;;;;;;;;4935414;29;20474;-75
2022/06/15 03:00:42;;;;;;;10.53;9.43;;;;;;;;;;4934797;29;20446;-75
2022/06/15 03:03:10;;;;;;;10.40;9.30;;;;;;;;;;4954167;28;20493;-75
2022/06/15 03:05:37;;;;;;;13.20;9.50;;;;;;;;;;4956034;28;20552;-76
2022/06/15 03:08:04;;;;;;;11.87;8.50;;;;;;;;;;4944566;28;20439;-76
2022/06/15 03:10:33;;;;;;;10.13;8.50;;;;;;;;;;4940296;29;20810;-74
2022/06/15 03:13:00;;;;;;;16.00;10.30;;;;;;;;;;4950079;29;20460;-76
2022/06/15 03:15:27;;;;;;;9.83;8.57;;;;;;;;;;4953408;29;20488;-77
2022/06/15 03:17:54;;;;;;;10.03;9.13;;;;;;;;;;4953911;29;20560;-76
2022/06/15 03:20:22;;;;;;;9.67;8.80;;;;;;;;;;4954428;28;20442;-75
2022/06/15 03:22:50;;;;;;;10.03;8.40;;;;;;;;;;4953678;28;20481;-76
2022/06/15 03:25:17;;;;;;;10.13;8.93;;;;;;;;;;4954887;28;20458;-76
2022/06/15 03:27:46;;;;;;;11.33;9.23;;;;;;;;;;4955660;28;20540;-77
2022/06/15 03:30:13;;;;;;;13.37;8.90;;;;;;;;;;4944704;28;20990;-76
2022/06/15 03:32:41;;;;;;;13.73;9.00;;;;;;;;;;4940298;29;20445;-74
2022/06/15 03:35:08;;;;;;;9.63;8.47;;;;;;;;;;4948305;28;20451;-76
2022/06/15 03:37:37;;;;;;;9.73;8.73;;;;;;;;;;4953158;28;20825;-76
2022/06/15 03:40:05;;;;;;;10.00;7.63;;;;;;;;;;4953578;28;20477;-76
2022/06/15 03:42:33;;;;;;;11.30;8.47;;;;;;;;;;4953605;28;20544;-75
2022/06/15 03:45:01;;;;;;;9.73;8.70;;;;;;;;;;4953560;29;20463;-75
2022/06/15 03:47:29;;;;;;;10.43;8.40;;;;;;;;;;4953474;28;20481;-75
2022/06/15 03:49:56;;;;;;;12.63;7.90;;;;;;;;;;4955503;28;20445;-75
2022/06/15 03:52:25;;;;;;;11.10;7.50;;;;;;;;;;4944320;28;20456;-74
2022/06/15 03:54:52;;;;;;;10.17;6.93;;;;;;;;;;4938427;29;20536;-76
2022/06/15 03:57:20;;;;;;;10.40;7.70;;;;;;;;;;4948052;28;20466;-74
2022/06/15 03:59:48;;;;;;;8.00;7.20;;;;;;;;;;4953260;28;20449;-75
2022/06/15 04:02:16;;;;;;;7.90;7.20;;;;;;;;;;4953364;29;20438;-74
2022/06/15 04:04:44;;;;;;;8.40;7.60;;;;;;;;;;4953352;28;20494;-75
2022/06/15 04:09:52;;;;;;;9.47;7.90;;;;;;;;;;4939656;29;20462;-74
2022/06/15 04:12:19;;;;;;;12.63;8.60;;;;;;;;;;4955216;28;20441;-74
2022/06/15 04:14:47;;;;;;;9.53;8.00;;;;;;;;;;4944581;29;20453;-75
2022/06/15 04:17:14;;;;;;;10.10;7.33;;;;;;;;;;4939505;29;20462;-75
2022/06/15 04:19:43;;;;;;;8.10;7.27;;;;;;;;;;4935234;29;20451;-75
2022/06/15 04:22:10;;;;;;;9.40;8.50;;;;;;;;;;4933926;29;20450;-76
2022/06/15 04:24:39;;;;;;;13.17;8.03;;;;;;;;;;4933975;29;20495;-74
2022/06/15 04:27:06;;;;;;;9.97;7.53;;;;;;;;;;4934187;29;20468;-74
2022/06/15 04:29:34;;;;;;;8.90;8.00;;;;;;;;;;4933863;29;20453;-74
2022/06/15 04:32:01;;;;;;;9.37;7.77;;;;;;;;;;4952118;28;20472;-75
2022/06/15 04:34:28;;;;;;;9.67;8.23;;;;;;;;;;4955129;29;20441;-73
2022/06/15 04:36:56;;;;;;;10.70;7.53;;;;;;;;;;4944967;28;20466;-75
2022/06/15 04:39:24;;;;;;;8.73;7.20;;;;;;;;;;4939074;29;20823;-74
2022/06/15 04:41:51;;;;;;;6.73;6.03;;;;;;;;;;4947939;28;20545;-75
2022/06/15 04:44:18;;;;;;;7.50;6.73;;;;;;;;;;4952662;28;20850;-74
2022/06/15 04:46:45;;;;;;;7.40;6.70;;;;;;;;;;4954144;28;20465;-75
2022/06/15 04:49:12;;;;;;;6.77;5.90;;;;;;;;;;4956455;28;20449;-75
2022/06/15 04:51:40;;;;;;;7.37;6.13;;;;;;;;;;4956642;29;20445;-75
2022/06/15 04:54:10;;;;;;;6.77;6.10;;;;;;;;;;4957569;28;20797;-76
2022/06/15 04:56:38;;;;;;;8.67;5.77;;;;;;;;;;4958331;29;20465;-75
2022/06/15 04:59:06;;;;;;;8.97;5.27;;;;;;;;;;4949038;29;20445;-75
2022/06/15 05:01:33;;;;;;;7.50;5.80;;;;;;;;;;4942755;29;20415;-75
2022/06/15 05:04:01;;;;;;;6.13;5.53;;;;;;;;;;4950184;29;20473;-76
2022/06/15 05:06:32;;;;;;;6.83;4.90;;;;;;;;;;4955782;29;20580;-76
2022/06/15 05:08:59;;;;;;;7.57;5.40;;;;;;;;;;4954549;29;20449;-74
2022/06/15 05:11:28;;;;;;;8.13;5.00;;;;;;;;;;4955921;28;20445;-75
2022/06/15 05:13:55;;;;;;;5.30;4.53;;;;;;;;;;4956197;28;20442;-75
2022/06/15 05:16:23;;;;;;;6.73;4.60;;;;;;;;;;4956936;29;21066;-76
2022/06/15 05:18:50;;;;;;;6.90;4.57;;;;;;;;;;4958034;28;20442;-75
2022/06/15 05:21:17;;;;;;;4.97;4.47;;;;;;;;;;4948979;29;20922;-75
2022/06/15 05:23:44;;;;;;;5.20;4.33;;;;;;;;;;4942225;28;20475;-74
2022/06/15 05:26:12;;;;;;;4.30;3.90;;;;;;;;;;4938343;29;20823;-75
2022/06/15 05:28:41;;;;;;;4.97;4.23;;;;;;;;;;4936873;29;20457;-75
2022/06/15 05:31:10;;;;;;;6.50;4.50;;;;;;;;;;4936527;29;20439;-74
2022/06/15 05:33:40;;;;;;;9.47;5.33;;;;;;;;;;4936708;29;20450;-74
2022/06/15 05:36:09;;;;;;;4.30;3.70;;;;;;;;;;4936620;29;20478;-75
2022/06/15 05:38:36;;;;;;;7.03;4.90;;;;;;;;;;4951178;28;20488;-76
2022/06/15 05:41:03;;;;;;;6.30;4.70;;;;;;;;;;4941859;29;20442;-75
2022/06/15 05:43:31;;;;;;;4.57;4.10;;;;;;;;;;4941462;28;20493;-74
2022/06/15 05:46:00;;;;;;;6.87;4.63;;;;;;;;;;4935348;29;21112;-75
2022/06/15 05:48:27;;;;;;;7.13;3.93;;;;;;;;;;4935982;29;20478;-74
2022/06/15 05:50:55;;;;;;;7.27;4.13;;;;;;;;;;4936365;29;20821;-75
2022/06/15 05:53:22;;;;;;;4.57;3.50;;;;;;;;;;4936497;29;20442;-74
2022/06/15 05:55:49;;;;;;;5.30;4.00;;;;;;;;;;4941988;28;20568;-74
2022/06/15 05:58:17;;;;;;;4.40;3.10;;;;;;;;;;4956520;28;20442;-75
2022/06/15 06:00:44;;;;;;;4.97;3.67;;;;;;;;;;4957370;28;20452;-77
2022/06/15 06:03:13;;;;;;;6.13;3.10;;;;;;;;;;4941239;28;20951;-74
2022/06/15 06:05:40;;;;;;;5.30;3.43;;;;;;;;;;4941902;29;20548;-73
2022/06/15 06:08:07;;;;;;;6.67;3.30;;;;;;;;;;4954300;29;20441;-74
2022/06/15 06:10:34;;;;;;;4.60;3.10;;;;;;;;;;4954488;29;20456;-73
2022/06/15 06:13:02;;;;;;;5.50;3.23;;;;;;;;;;4955020;29;20464;-74
2022/06/15 06:15:29;;;;;;;4.70;3.37;;;;;;;;;;4955335;28;20480;-73
2022/06/15 06:18:01;;;;;;;6.10;3.60;;;;;;;;;;4954815;28;20466;-74
2022/06/15 06:20:29;;;;;;;5.60;3.43;;;;;;;;;;4956975;29;20481;-74
2022/06/15 06:22:56;;;;;;;4.30;3.17;;;;;;;;;;4956738;29;20450;-74
2022/06/15 06:25:24;;;;;;;3.93;2.57;;;;;;;;;;4943418;29;20576;-73
2022/06/15 06:27:51;;;;;;;4.13;2.87;;;;;;;;;;4941111;29;20431;-73
2022/06/15 06:30:21;;;;;;;6.37;3.07;;;;;;;;;;4935846;29;20831;-75
2022/06/15 06:32:48;;;;;;;6.77;3.60;;;;;;;;;;4935182;29;20446;-74
2022/06/15 06:35:15;;;;;;;4.80;3.10;;;;;;;;;;4935352;29;20461;-75
2022/06/15 06:37:45;;;;;;;4.13;3.23;;;;;;;;;;4935632;29;20486;-74
2022/06/15 06:40:13;;;;;;;6.87;2.90;;;;;;;;;;4935942;28;20450;-74
2022/06/15 06:42:41;;;;;;;6.57;2.90;;;;;;;;;;4956496;28;20452;-74
2022/06/15 06:45:10;;;;;;;6.13;2.70;;;;;;;;;;4956771;28;20839;-74
2022/06/15 06:47:37;;;;;;;4.37;2.50;;;;;;;;;;4945124;28;20817;-76
2022/06/15 06:50:05;;;;;;;5.97;2.90;;;;;;;;;;4941148;29;20448;-73
2022/06/15 06:52:32;;;;;;;6.73;3.00;;;;;;;;;;4936260;29;20439;-73
2022/06/15 06:55:01;;;;;;;4.17;2.50;;;;;;;;;;4934870;29;20452;-74
2022/06/15 06:57:28;;;;;;;3.17;2.30;;;;;;;;;;4934999;29;20557;-75
2022/06/15 06:59:55;;;;;;;3.37;3.00;;;;;;;;;;4935348;29;20450;-75
2022/06/15 07:02:22;;;;;;;4.63;2.60;;;;;;;;;;4934872;29;20449;-74
2022/06/15 07:04:49;;;;;;;3.23;2.80;;;;;;;;;;4953762;28;21406;-74
2022/06/15 07:07:17;;;;;;;4.37;2.80;;;;;;;;;;4956083;28;20473;-74
2022/06/15 07:09:44;;;;;;;5.43;2.70;;;;;;;;;;4947354;28;20521;-74
2022/06/15 07:12:13;;;;;;;4.67;2.63;;;;;;;;;;4940534;29;20436;-75
2022/06/15 07:14:40;;;;;;;5.80;3.13;;;;;;;;;;4947604;28;20441;-74
2022/06/15 07:17:07;;;;;;;4.00;2.63;;;;;;;;;;4953585;29;20474;-74
2022/06/15 07:19:34;;;;;;;4.57;3.17;;;;;;;;;;4953801;29;20468;-75
2022/06/15 07:22:01;;;;;;;4.37;2.60;;;;;;;;;;4953863;29;20987;-75
2022/06/15 07:24:28;;;;;;;4.27;2.80;;;;;;;;;;4954237;28;20492;-74
2022/06/15 07:26:56;;;;;;;3.17;2.50;;;;;;;;;;4954717;29;20491;-74
2022/06/15 07:29:24;;;;;;;4.70;2.67;;;;;;;;;;4955647;28;20446;-75
2022/06/15 07:31:52;;;;;;;6.93;2.90;;;;;;;;;;4949090;28;20460;-73
2022/06/15 07:34:20;;;;;;;5.00;2.50;;;;;;;;;;4939065;29;20449;-75
2022/06/15 07:36:48;;;;;;;5.53;2.97;;;;;;;;;;4937161;29;21020;-74
2022/06/15 07:39:16;;;;;;;5.03;2.93;;;;;;;;;;4934021;29;20509;-73
2022/06/15 07:41:43;;;;;;;4.30;2.70;;;;;;;;;;4932975;29;20968;-74
2022/06/15 07:44:11;;;;;;;3.90;2.53;;;;;;;;;;4932994;29;21010;-74
2022/06/15 07:46:40;;;;;;;4.07;2.67;;;;;;;;;;4935040;29;20466;-74
2022/06/15 07:51:52;;;;;;;4.60;3.40;;;;;;;;;;4956623;28;20484;-74
2022/06/15 07:54:20;;;;;;;3.73;2.17;;;;;;;;;;4947736;28;20529;-75
2022/06/15 07:56:47;;;;;;;5.70;2.80;;;;;;;;;;4939631;29;20470;-74
2022/06/15 07:59:15;;;;;;;7.33;3.60;;;;;;;;;;4935226;29;20446;-72
2022/06/15 08:01:44;;;;;;;4.00;2.80;;;;;;;;;;4933035;29;20438;-74
2022/06/15 08:04:12;;;;;;;8.40;3.03;;;;;;;;;;4933974;29;20484;-74
2022/06/15 08:06:41;;;;;;;4.27;2.67;;;;;;;;;;4934049;29;20470;-74
2022/06/15 08:09:09;;;;;;;3.67;2.80;;;;;;;;;;4934620;29;20446;-75
2022/06/15 08:11:36;;;;;;;5.37;2.70;;;;;;;;;;4948612;28;20469;-75
2022/06/15 08:14:03;;;;;;;3.20;2.60;;;;;;;;;;4955273;28;20453;-74
2022/06/15 08:16:31;;;;;;;5.77;2.80;;;;;;;;;;4947584;29;20466;-74
2022/06/15 08:19:01;;;;;;;6.07;3.27;;;;;;;;;;4938556;29;20438;-74
2022/06/15 08:21:30;;;;;;;4.70;2.90;;;;;;;;;;4947419;28;20509;-73
2022/06/15 08:23:58;;;;;;;5.10;2.60;;;;;;;;;;4956469;28;20943;-74
2022/06/15 08:26:27;;;;;;;3.77;2.70;;;;;;;;;;4956875;28;20469;-74
2022/06/15 08:28:56;;;;;;;3.20;2.67;;;;;;;;;;4956971;28;20441;-73
2022/06/15 08:31:23;;;;;;;6.83;3.30;;;;;;;;;;4957155;28;20946;-73
2022/06/15 08:33:50;;;;;;;4.33;2.70;;;;;;;;;;4957641;28;20787;-76
2022/06/15 08:36:19;;;;;;;8.30;3.40;;;;;;;;;;4958454;29;20547;-74
2022/06/15 08:38:46;;;;;;;4.13;2.93;;;;;;;;;;4950341;29;22460;-74
2022/06/15 08:41:21;;;;;;;5.33;2.80;;;;;;;;;;4943315;29;20449;-74
2022/06/15 08:43:55;;;;;;;3.40;3.00;;;;;;;;;;4938179;29;20433;-73
2022/06/15 08:46:27;;;;;;;8.83;3.17;;;;;;;;;;4937247;29;20466;-74
2022/06/15 08:49:00;;;;;;;4.73;3.50;;;;;;;;;;4937165;29;20451;-73
2022/06/15 08:51:31;;;;;;;6.83;3.43;;;;;;;;;;4937718;29;20453;-74
2022/06/15 08:54:02;;;;;;;6.40;3.77;;;;;;;;;;4936212;29;20475;-76
2022/06/15 08:56:32;;;;;;;4.90;3.43;;;;;;;;;;4956496;28;20496;-74
2022/06/15 08:59:02;;;;;;;5.70;3.70;;;;;;;;;;4958346;28;20441;-76
2022/06/15 09:01:33;;;;;;;6.40;3.50;;;;;;;;;;4947044;29;20446;-73
2022/06/15 09:04:05;;;;;;;5.03;3.40;;;;;;;;;;4942378;28;20922;-73
2022/06/15 09:06:47;;;;;;;5.83;3.60;;;;;;;;;;4952993;28;20468;-72
2022/06/15 09:09:20;;;;;;;6.23;3.13;;;;;;;;;;4955798;29;20452;-74
2022/06/15 09:12:49;;;;;;;3.83;2.93;;;;;;;;;;4955995;28;20441;-74
2022/06/15 09:14:48;;;;;;;3.40;2.50;;;;;;;;;;4955111;29;20444;-75
2022/06/15 09:17:18;;;;;;;6.47;2.97;;;;;;;;;;4956208;29;20557;-72
2022/06/15 09:19:48;;;;;;;4.00;2.90;;;;;;;;;;4958011;28;20446;-73
2022/06/15 09:22:18;;;;;;;4.73;2.50;;;;;;;;;;4955398;28;20441;-73
2022/06/15 09:24:48;;;;;;;7.00;3.07;;;;;;;;;;4942368;29;20854;-75
2022/06/15 09:27:19;;;;;;;5.67;2.73;;;;;;;;;;4943574;29;20856;-74
2022/06/15 09:29:49;;;;;;;5.10;2.60;;;;;;;;;;4955042;28;20454;-74
2022/06/15 09:32:18;;;;;;;7.43;3.10;;;;;;;;;;4953577;28;20450;-74
2022/06/15 09:34:46;;;;;;;7.60;3.07;;;;;;;;;;4955083;28;20552;-74
2022/06/15 09:37:15;;;;;;;6.53;3.03;;;;;;;;;;4955930;29;20457;-73
2022/06/15 09:39:44;;;;;;;9.10;3.03;;;;;;;;;;4956091;28;20472;-74
2022/06/15 09:42:16;;;;;;;2.90;2.10;;;;;;;;;;4957698;29;20532;-74
2022/06/15 09:44:49;;;;;;;4.10;2.70;;;;;;;;;;4953249;28;20487;-73
2022/06/15 09:47:21;;;;;;;6.07;2.90;;;;;;;;;;4934251;28;20684;-73
2022/06/15 09:49:53;;;;;;;4.73;2.90;;;;;;;;;;4940144;29;20439;-74
2022/06/15 09:52:24;;;;;;;4.60;2.50;;;;;;;;;;4934942;29;20502;-74
2022/06/15 09:54:56;;;;;;;5.33;2.50;;;;;;;;;;4936012;29;20461;-73
2022/06/15 09:57:24;;;;;;;3.77;2.50;;;;;;;;;;4936008;29;20474;-75
2022/06/15 09:59:52;;;;;;;4.60;2.43;;;;;;;;;;4936426;29;20545;-73
2022/06/15 10:02:22;;;;;;;7.00;3.50;;;;;;;;;;4947176;28;20460;-74
2022/06/15 10:04:49;;;;;;;5.87;2.93;;;;;;;;;;4957211;28;20489;-74
2022/06/15 10:07:20;;;;;;;3.13;2.60;;;;;;;;;;4951507;28;20463;-74
2022/06/15 10:09:50;;;;;;;3.30;2.43;;;;;;;;;;4940111;28;20489;-75
2022/06/15 10:15:16;;;;;;;6.17;2.83;;;;;;;;;;4935170;29;20526;-74
2022/06/15 10:17:46;;;;;;;6.77;3.00;;;;;;;;;;4934529;29;20533;-74
2022/06/15 10:20:21;;;;;;;6.70;2.90;;;;;;;;;;4935962;29;20450;-74
2022/06/15 10:22:52;;;;;;;4.80;2.83;;;;;;;;;;4935859;29;20882;-73
2022/06/15 10:25:19;;;;;;;3.77;2.53;;;;;;;;;;4954030;28;20496;-74
2022/06/15 10:27:46;;;;;;;4.50;2.57;;;;;;;;;;4956822;29;20461;-73
2022/06/15 10:30:18;;;;;;;8.67;2.53;;;;;;;;;;4946735;28;20439;-74
2022/06/15 10:32:59;;;;;;;3.20;2.90;;;;;;;;;;4940982;29;20440;-74
2022/06/15 10:35:27;;;;;;;5.10;2.80;;;;;;;;;;4936074;29;20553;-76
2022/06/15 10:37:56;;;;;;;5.80;3.07;;;;;;;;;;4934718;29;21013;-73
2022/06/15 10:40:25;;;;;;;3.53;2.73;;;;;;;;;;4935287;29;20820;-75
2022/06/15 10:42:56;;;;;;;5.60;2.83;;;;;;;;;;4934646;29;20493;-75
2022/06/15 10:45:26;;;;;;;3.87;2.57;;;;;;;;;;4934341;29;20996;-73
2022/06/15 10:47:56;;;;;;;7.07;3.30;;;;;;;;;;4937296;29;20534;-75
2022/06/15 10:50:26;;;;;;;6.80;3.00;;;;;;;;;;4937256;29;20493;-75
2022/06/15 10:52:55;;;;;;;6.33;3.00;;;;;;;;;;4938732;29;20874;-74
2022/06/15 11:03:43;;;;;;;5.90;3.47;;;;;;;;;;4934715;29;20474;-73
2022/06/15 11:06:10;;;;;;;5.07;3.03;;;;;;;;;;4934832;29;21027;-75
2022/06/15 11:08:43;;;;;;;4.37;2.50;;;;;;;;;;4942700;28;20472;-74
2022/06/15 11:11:12;;;;;;;4.73;2.60;;;;;;;;;;4955001;28;20445;-73
2022/06/15 11:13:41;;;;;;;3.50;2.40;;;;;;;;;;4952965;28;20447;-74
2022/06/15 11:19:06;;;;;;;4.03;2.60;;;;;;;;;;4943831;28;20426;-74
2022/06/15 11:21:35;;;;;;;5.63;3.13;;;;;;;;;;4953543;29;20480;-75
2022/06/15 11:24:04;;;;;;;3.60;2.53;;;;;;;;;;4953749;29;20452;-75
2022/06/15 11:29:22;;;;;;;4.90;3.20;;;;;;;;;;4953852;29;20438;-74
2022/06/15 11:31:50;;;;;;;4.37;2.83;;;;;;;;;;4953711;29;20452;-74
2022/06/15 11:34:23;;;;;;;6.97;3.00;;;;;;;;;;4955752;29;20441;-74
2022/06/15 11:36:53;;;;;;;4.27;2.70;;;;;;;;;;4945687;28;20453;-73
2022/06/15 11:39:21;;;;;;;3.70;2.97;;;;;;;;;;4938570;29;20465;-74
2022/06/15 11:41:51;;;;;;;4.43;2.70;;;;;;;;;;4936275;29;20450;-74
2022/06/15 11:44:21;;;;;;;6.50;2.93;;;;;;;;;;4934247;29;20928;-75
2022/06/15 11:46:55;;;;;;;3.40;2.77;;;;;;;;;;4933054;29;20505;-75
2022/06/15 11:49:30;;;;;;;3.37;2.67;;;;;;;;;;4934597;29;20886;-73
2022/06/15 11:52:06;;;;;;;3.50;2.90;;;;;;;;;;4934155;29;21139;-73
2022/06/15 11:54:39;;;;;;;4.83;2.70;;;;;;;;;;4954245;28;20465;-74
2022/06/15 11:57:12;;;;;;;2.97;2.67;;;;;;;;;;4954590;29;20480;-74
2022/06/15 11:59:42;;;;;;;5.80;2.60;;;;;;;;;;4943148;28;20442;-76
2022/06/15 12:02:16;;;;;;;5.20;2.60;;;;;;;;;;4938390;29;20454;-74
2022/06/15 12:04:58;;;;;;;4.80;2.37;;;;;;;;;;4951105;28;20449;-73
2022/06/15 12:07:31;;;;;;;4.97;2.70;;;;;;;;;;4952950;28;20465;-74
2022/06/15 12:10:03;;;;;;;3.63;2.60;;;;;;;;;;4953253;29;20819;-74
2022/06/15 12:12:38;;;;;;;3.60;2.60;;;;;;;;;;4953560;29;20450;-75
2022/06/15 12:15:10;;;;;;;2.60;2.33;;;;;;;;;;4953133;28;20445;-74
2022/06/15 12:17:41;;;;;;;3.30;2.60;;;;;;;;;;4955289;28;20442;-74
2022/06/15 12:20:16;;;;;;;5.07;3.10;;;;;;;;;;4954325;28;20528;-74
2022/06/15 12:22:46;;;;;;;2.40;2.20;;;;;;;;;;4939440;29;20445;-74
2022/06/15 12:25:17;;;;;;;3.73;2.53;;;;;;;;;;4941822;29;20434;-74
2022/06/15 12:27:49;;;;;;;5.70;3.00;;;;;;;;;;4952166;28;20445;-74
2022/06/15 12:30:22;;;;;;;3.80;3.20;;;;;;;;;;4952784;29;20452;-73
2022/06/15 12:32:55;;;;;;;3.10;2.43;;;;;;;;;;4953220;29;20536;-74
2022/06/15 12:35:29;;;;;;;2.93;2.30;;;;;;;;;;4953153;29;20450;-76
2022/06/15 12:37:58;;;;;;;4.10;2.63;;;;;;;;;;4951992;28;20489;-74
2022/06/15 12:40:30;;;;;;;3.63;3.00;;;;;;;;;;4955103;28;20476;-74
2022/06/15 12:43:02;;;;;;;3.87;2.30;;;;;;;;;;4949238;29;20468;-74
2022/06/15 12:45:33;;;;;;;4.37;2.60;;;;;;;;;;4939289;29;20486;-74
2022/06/15 12:48:00;;;;;;;5.43;2.50;;;;;;;;;;4936672;29;20461;-75
2022/06/15 12:50:39;;;;;;;3.53;2.73;;;;;;;;;;4933429;29;20450;-74
2022/06/15 12:53:12;;;;;;;4.97;2.40;;;;;;;;;;4933645;29;20455;-73
2022/06/15 12:55:42;;;;;;;3.93;2.70;;;;;;;;;;4933806;29;20944;-73
2022/06/15 12:58:13;;;;;;;3.60;2.53;;;;;;;;;;4934068;29;20446;-74
2022/06/15 13:00:43;;;;;;;5.30;2.77;;;;;;;;;;4948208;28;20453;-74
2022/06/15 13:03:14;;;;;;;3.50;3.20;;;;;;;;;;4954673;29;20939;-74
2022/06/15 13:05:43;;;;;;;4.50;2.67;;;;;;;;;;4947260;28;20569;-74
2022/06/15 13:08:25;;;;;;;2.90;2.40;;;;;;;;;;4941347;29;20811;-74
2022/06/15 13:11:01;;;;;;;3.97;2.57;;;;;;;;;;4937770;29;20804;-75
2022/06/15 13:13:30;;;;;;;3.43;2.40;;;;;;;;;;4935497;29;20805;-75
2022/06/15 13:15:59;;;;;;;6.40;2.90;;;;;;;;;;4935812;29;20471;-74
2022/06/15 13:18:39;;;;;;;4.53;2.87;;;;;;;;;;4937146;29;20438;-74
2022/06/15 13:21:08;;;;;;;4.00;2.67;;;;;;;;;;4935588;29;20505;-74
2022/06/15 13:23:37;;;;;;;3.87;2.60;;;;;;;;;;4956492;28;20485;-74
2022/06/15 13:26:06;;;;;;;4.63;2.80;;;;;;;;;;4957679;28;20486;-75
2022/06/15 13:28:35;;;;;;;3.63;2.47;;;;;;;;;;4947141;28;20442;-74
2022/06/15 13:31:04;;;;;;;2.90;2.40;;;;;;;;;;4941249;28;20509;-74
2022/06/15 13:33:46;;;;;;;2.97;2.50;;;;;;;;;;4951697;29;20442;-73
2022/06/15 13:36:23;;;;;;;4.87;2.10;;;;;;;;;;4954149;28;20531;-73
2022/06/15 13:38:51;;;;;;;3.70;2.63;;;;;;;;;;4955487;29;20470;-74
2022/06/15 13:41:23;;;;;;;5.20;2.40;;;;;;;;;;4956105;29;20438;-74
2022/06/15 13:44:06;;;;;;;3.50;2.50;;;;;;;;;;4955104;28;20453;-74
2022/06/15 13:46:35;;;;;;;4.10;2.83;;;;;;;;;;4957163;28;20486;-73
2022/06/15 13:49:06;;;;;;;3.90;3.00;;;;;;;;;;4951163;28;20448;-73
2022/06/15 13:51:37;;;;;;;5.10;2.80;;;;;;;;;;4942019;28;20438;-74
2022/06/15 13:54:11;;;;;;;5.17;2.40;;;;;;;;;;4938866;29;20448;-73
2022/06/15 13:56:44;;;;;;;4.30;2.53;;;;;;;;;;4935865;29;21003;-73
2022/06/15 13:59:15;;;;;;;3.90;2.60;;;;;;;;;;4935885;29;20450;-74
2022/06/15 14:01:48;;;;;;;3.30;2.50;;;;;;;;;;4936308;29;20469;-74
2022/06/15 14:04:30;;;;;;;2.80;2.30;;;;;;;;;;4936318;29;20449;-74
2022/06/15 14:07:07;;;;;;;4.27;2.57;;;;;;;;;;4953998;28;20846;-73
2022/06/15 14:09:43;;;;;;;6.83;2.50;;;;;;;;;;4957242;29;20449;-73
2022/06/15 14:12:18;;;;;;;3.30;2.70;;;;;;;;;;4946203;28;20434;-75
2022/06/15 14:14:57;;;;;;;3.20;2.40;;;;;;;;;;4941579;29;20433;-74
2022/06/15 14:17:33;;;;;;;6.27;2.50;;;;;;;;;;4935964;29;20458;-74
2022/06/15 14:20:02;;;;;;;3.87;2.50;;;;;;;;;;4934550;29;20936;-73
2022/06/15 14:22:44;;;;;;;6.03;2.40;;;;;;;;;;4935759;29;20453;-75
2022/06/15 14:25:15;;;;;;;4.57;2.87;;;;;;;;;;4936033;29;20783;-74
2022/06/15 14:27:42;;;;;;;4.37;2.73;;;;;;;;;;4938220;29;20513;-74
2022/06/15 14:30:19;;;;;;;4.60;2.80;;;;;;;;;;4956833;28;20807;-74
2022/06/15 14:32:46;;;;;;;2.60;2.40;;;;;;;;;;4955419;28;20958;-74
2022/06/15 14:35:17;;;;;;;4.20;2.60;;;;;;;;;;4940977;28;20435;-74
2022/06/15 14:37:46;;;;;;;10.70;2.80;;;;;;;;;;4941643;28;20890;-74
2022/06/15 14:40:27;;;;;;;3.77;3.00;;;;;;;;;;4953691;28;20446;-74
2022/06/15 14:42:56;;;;;;;3.97;2.53;;;;;;;;;;4952868;28;20930;-74
2022/06/15 14:45:26;;;;;;;2.43;2.07;;;;;;;;;;4954664;28;20445;-74
2022/06/15 14:47:54;;;;;;;5.23;2.87;;;;;;;;;;4953545;28;20488;-74
2022/06/15 14:50:22;;;;;;;4.40;2.43;;;;;;;;;;4954694;28;20476;-75
2022/06/15 14:52:50;;;;;;;5.70;2.80;;;;;;;;;;4956495;28;20533;-74
2022/06/15 14:55:20;;;;;;;4.27;2.23;;;;;;;;;;4954740;28;20855;-74
2022/06/15 14:57:47;;;;;;;4.63;2.60;;;;;;;;;;4940397;28;20442;-74
2022/06/15 15:00:23;;;;;;;5.23;2.53;;;;;;;;;;4942719;29;20438;-73
2022/06/15 15:02:52;;;;;;;8.03;2.80;;;;;;;;;;4952211;29;20448;-74
2022/06/15 15:05:20;;;;;;;3.43;2.20;;;;;;;;;;4952504;28;20446;-76
2022/06/15 15:10:32;;;;;;;3.20;2.43;;;;;;;;;;4952539;28;20441;-74
2022/06/15 15:13:14;;;;;;;5.40;2.40;;;;;;;;;;4953423;28;20786;-75
2022/06/15 15:15:43;;;;;;;4.17;2.40;;;;;;;;;;4955003;29;20472;-74
2022/06/15 15:18:11;;;;;;;3.93;2.70;;;;;;;;;;4949112;28;20806;-75
2022/06/15 15:20:40;;;;;;;4.43;2.57;;;;;;;;;;4940170;29;20442;-76